This is the latest recevied weather packets stored in our database for station/object WV8MT. If no packets are shown the sender has not sent any weather packets the latest 10 day(s).
| Time | Temp. | Humidity | Pressure | Rain* | Wind** | Luminosity | Snow |
|---|---|---|---|---|---|---|---|
| 1778065823 | 13.33° C | 99% | 1013.7 hPa | 0.25 mm | - | - | - |
| 1778065227 | 13.33° C | 99% | 1013.8 hPa | 0.25 mm | - | - | - |
| 1778061019 | 17.22° C | 67% | 1013.2 hPa | 0 mm | - | - | - |
| 1778060423 | 17.22° C | 66% | 1013.2 hPa | 0 mm | - | - | - |
| 1778057425 | 17.22° C | 65% | 1013.4 hPa | 0 mm | - | - | - |
| 1778055024 | 17.78° C | 63% | 1013.6 hPa | 0 mm | - | - | - |
| 1778045416 | 17.78° C | 59% | 1015.1 hPa | 0 mm | - | - | - |
| 1778043649 | 17.22° C | 60% | 1015.4 hPa | 0 mm | - | - | - |
| 1778040017 | 17.22° C | 59% | 1015.2 hPa | 0 mm | - | - | - |
| 1778039421 | 17.22° C | 60% | 1015.2 hPa | 0 mm | - | - | - |
| 1778038229 | 17.22° C | 59% | 1015.3 hPa | 0 mm | - | - | - |
| 1778036443 | 17.22° C | 59% | 1015.6 hPa | 0 mm | - | - | - |
| 1778035225 | 17.78° C | 58% | 1015.8 hPa | 0 mm | - | - | - |
| 1778033419 | 17.78° C | 57% | - | 0 mm | - | - | - |
| 1778031620 | 17.78° C | 57% | 1015.4 hPa | 0 mm | - | - | - |
| 1778014216 | 26.67° C | 37% | - | 0 mm | - | - | - |
| 1778009425 | 25.56° C | 36% | 1014.9 hPa | 0 mm | - | - | - |
| 1778004025 | 25° C | 39% | 1015.9 hPa | 0 mm | - | - | - |
| 1778003429 | 25.56° C | 38% | 1015.9 hPa | 0 mm | - | - | - |
| 1778001027 | 25° C | 40% | 1016.2 hPa | 0 mm | - | - | - |
| 1777999221 | 25° C | 41% | 1016.4 hPa | 0 mm | - | - | - |
| 1777987825 | 21.11° C | 56% | 1017.5 hPa | 0 mm | - | - | - |
| 1777983618 | 16.11° C | 74% | 1018.3 hPa | 0 mm | - | - | - |
| 1777982427 | 12.22° C | 89% | 1018.5 hPa | 0 mm | - | - | - |
| 1777981830 | 10° C | 95% | 1018.5 hPa | 0 mm | - | - | - |
* Rain latest hour (hover to see other rain measurements)
** Current wind speed in m/s (hover to see current wind gust speed)